KSMOKRAL

Guest
Details From KSMO - SANTA MONICA MUNI
To KRAL - Riverside Muni
Flight Number -
Tags generated
Created
Modified
Stats Distance 50 nm / 93 km
Max Altitude 3,000 ft / 914 m
Waypoints 3
Social Downloads 0
Likes 0
Share VATSIM

Download

Looking for another format? Having issues loading an existing format? Contact us
Advertisement - Login to hide

Notes

Basic altitude profile: - Ascent Rate: 2500ft/min - Ascent Speed: 250kts - Cruise Altitude: 35000ft - Cruise Speed: 420kts - Descent Rate: 1500ft/min - Descent Speed: 250kts

Route

KSMO STABO KRAL

ID Type Via Altitude Latitude Longitude Leg Dist Tot Dist Heading (true) Name
O KSMO APT - 0 ft / 0 m 34.01585˚ -118.45133˚ - 0 nm - SANTA MONICA MUNI
STABO FIX - 3,000 ft / 914 m 34.00248˚ -118.28163˚ 8 nm 8 nm 95° / 95° -
O KRAL APT - 0 ft / 0 m 33.95173˚ -117.44591˚ 41 nm 50 nm 94° / 94° Riverside Muni

Altitude Profile

Advertisement - Login to hide

KSMO

Details ICAO KSMO (SMO)
Name SANTA MONICA MUNI
Region United States
Timezone America/Los_Angeles (UTC-7.0)
Stats Elevation 177 ft / 54 m (AMSL)
Location 34.015847° -118.451329°
Runways 1
Magnetic Variation 11.990° E

METAR

KSMO 262351Z 25009KT 10SM SCT060 19/09 A2996 RMK AO2 SLP145 T01890089 10194 20167 58017

Decode

TAF

TAF KSMO 262322Z 2700/2724 24008KT P6SM SCT025 FM270300 VRB03KT P6SM SKC FM270900 VRB03KT P6SM BKN015 FM271700 VRB03KT P6SM SCT020 FM272000 24010KT P6SM SKC

Decode

Departure Runways

ID Width Length Bearing (true) Bearing (mag) Surface Threshold Offset Overrun Length
03 151 ft / 46 m 4,978 ft / 1,517 m 44.45° 32.46° Asphalt 0 ft / 0 m 0 ft / 0 m
21 151 ft / 46 m 4,978 ft / 1,517 m 224.46° 212.47° Asphalt 0 ft / 0 m 0 ft / 0 m

KRAL

Details ICAO KRAL (RAL)
Name Riverside Muni
Region United States
Timezone America/Los_Angeles (UTC-7.0)
Stats Elevation 818 ft / 249 m (AMSL)
Location 33.951727° -117.445911°
Runways 2
Magnetic Variation 11.771° E

METAR

KRAL 262353Z VRB06KT 10SM OVC055 20/09 A2994 RMK AO2 SLP128 T02000094 10211 20167 56015 $

Decode

TAF

Not found

Destination Runways

ID Width Length Bearing (true) Bearing (mag) Surface Threshold Offset Overrun Length
09 98 ft / 30 m 5,391 ft / 1,643 m 103.12° 91.35° Asphalt 0 ft / 0 m 0 ft / 0 m
16 49 ft / 15 m 2,859 ft / 871 m 178.57° 166.80° Asphalt 0 ft / 0 m 0 ft / 0 m
27 98 ft / 30 m 5,391 ft / 1,643 m 283.12° 271.35° Asphalt 0 ft / 0 m 0 ft / 0 m
34 49 ft / 15 m 2,859 ft / 871 m 358.57° 346.80° Asphalt 0 ft / 0 m 0 ft / 0 m

Approach Navaids

Runway Type Ident Frequency Range Bearing (true) Bearing (mag) Slope Elevation
09 Localiser IRAL 110.90 MHz 18 nm / 33 km 103.12° 91.35° - 828 ft / 252 m (AMSL)
09 Glidescope IRAL 110.90 MHz 10 nm / 19 km 103.12° 91.35° 3.00° 764 ft / 233 m (AMSL)

Popular Alternatives